Tiempo atmosférico en la estación meteorológica de Tarifa, Cádiz (32 m.)



Fecha
DESCASC
Temp. máxima en grados centígrados (hora)
DESCASC
Temp. mínima en grados centígrados (hora)
DESCASC
Temp. media en grados centígrados
DESCASC
Racha de viento máxima en m/sg (hora)
DESCASC
Velocidad máxima media en intervalos de 10 minutos(hora)
DESCASC
Precipitaciones diarias en mm
DESCASC
Precipitaciones de 00:00 a 06:00 en mm
DESCASC
Precipitaciones de 06:00 a 12:00 en mm
DESCASC
Precipitaciones de 12:00 a 18:00 en mm
DESCASC
Precipitaciones de 18:00 a 24:00 en mm
DESCASC
14-12-2019 16.2 (14:30) 12.3 (08:00) 14.3 13.06 (16:30) 8.33 (15:20) 0 0 0 0 0
13-12-2019 15.9 (15:50) 12.9 (11:00) 14.4 17.22 (03:20) 10.28 (04:10) 0.8 0 0.8 0 0
12-12-2019 15.2 (23:30) 7.9 (05:50) 11.5 14.44 (23:50) 9.17 (23:10) 0 0 0 0 0
11-12-2019 -- (--) -- (--) -- -- (--) -- (--) -- -- -- 0 0
10-12-2019 -- (--) -- (--) -- -- (--) -- (--) -- -- -- -- --
09-12-2019 -- (--) -- (--) -- -- (--) -- (--) -- 0 -- -- --
08-12-2019 16.9 (15:30) 9.3 (00:00) 13.1 8.06 (14:20) 5.28 (14:40) 0 0 0 0 0
07-12-2019 17.4 (12:50) 12.7 (00:00) 15 15.56 (01:20) 10 (01:20) 0 0 0 0 0
06-12-2019 16.5 (13:00) 14.5 (00:00) 15.5 18.06 (04:50) 11.67 (04:50) 0 0 0 0 0
05-12-2019 15.5 (11:50) 10.4 (00:00) 12.9 16.67 (22:30) 10 (23:10) 0 0 0 0 0
04-12-2019 15 (04:30) 11.3 (00:00) 13.2 10.56 (08:40) 6.94 (08:30) 0.1 0 0 0 0.1
03-12-2019 15.3 (14:30) 11.9 (00:00) 13.6 10.83 (00:50) 6.39 (01:00) 0 0 0 0 0
02-12-2019 14.9 (00:00) 10.9 (00:00) 12.9 11.94 (19:40) 7.78 (19:50) 11.6 1.1 4.4 0 6.1
01-12-2019 16.9 (14:40) 12.6 (00:00) 14.8 15.28 (17:30) 8.06 (18:10) 7.9 1 2 4.3 0.6
30-11-2019 16.7 (15:10) 10.8 (00:00) 13.8 8.33 (21:10) 5.83 (20:40) 0 0 0 0 0
29-11-2019 17.2 (15:10) 11.4 (00:00) 14.3 8.33 (13:00) 5.56 (12:20) 0 0 0 0 0
28-11-2019 17.4 (14:10) 12.6 (00:00) 15 6.94 (15:10) 5 (15:20) 0.1 0 0.1 0 0
27-11-2019 16.6 (00:00) 14.3 (00:00) 15.5 11.11 (05:30) 8.33 (05:30) 10.4 3 6.9 0.5 0
26-11-2019 17 (16:30) 15.5 (00:00) 16.3 9.72 (01:00) 6.11 (23:59) 2.5 2.2 0.2 0.1 0
25-11-2019 18.3 (14:20) 12 (00:00) 15.1 10 (15:20) 7.22 (15:20) 0 0 0 0 0
24-11-2019 15.2 (15:20) 10.1 (00:00) 12.7 10 (13:40) 6.39 (13:40) 0 0 0 0 0
23-11-2019 15.9 (01:00) 12.5 (00:00) 14.2 16.11 (07:10) 9.44 (07:10) 0.2 0 0.2 0 0
22-11-2019 18.1 (19:00) 14.6 (00:00) 16.4 -- (--) 13.06 (20:40) 27.6 13.3 4.4 1.2 8.7
21-11-2019 16.4 (12:00) 14.1 (00:00) 15.3 15.28 (15:10) 8.61 (15:10) 13.1 0 6 7.1 0
20-11-2019 14.7 (11:20) 7.4 (00:00) 11 13.06 (15:10) 9.17 (15:10) 22.6 0 0.1 22.4 0.1
19-11-2019 16.6 (14:00) 8.9 (00:00) 12.8 8.33 (06:10) 5 (05:00) 0 0 0 0 0
18-11-2019 15.6 (03:30) 9.1 (00:00) 12.4 15.56 (04:10) 9.17 (04:10) 4.5 4.5 0 0 0
17-11-2019 15.1 (14:50) 7.4 (00:00) 11.3 17.22 (16:50) 10.83 (16:30) 7 0 0 6.7 0.3
16-11-2019 12.4 (15:10) 5.9 (00:00) 9.1 11.11 (16:10) 6.67 (15:50) 0 0 0 0 0

Gráficas

Temp. máximas Temp. mínimas Temp. medias Precipitaciones Rachas de viento máximas Velocidades máximas media en intervalos de 10 minutos

Datos horarios

Fecha y hora oficial Temperatura (ºC) Velocidad del viento (km/h) Dirección del viento Racha (km/h) Dirección de racha Precipitación (mm) Presión (hPa) Tendencia (hPa) Humedad (%)
2019-12-15 23:00:00 13.9 17 Nordeste 28 Este 0 1006.9 -1.7 84
2019-12-15 22:00:00 13.7 16 Este 23 Este 0 1007.6 -1 86
2019-12-15 21:00:00 11.6 8 Nordeste 13 Este 0 1008 -0.9 91
2019-12-15 20:00:00 10.9 3 Nordeste 8 Norte 0 1008.6 -0.7 89
2019-12-15 19:00:00 12.3 5 Norte 8 Noroeste 0 1008.6 -1.2 88
2019-12-15 18:00:00 14.4 6 Noroeste 11 Oeste 0 1008.9 -1.6 81
2019-12-15 17:00:00 15.4 8 Oeste 19 Oeste 0 1009.3 -2 77
2019-12-15 16:00:00 15.6 13 Oeste 21 Oeste 0 1009.8 -2.8 82
2019-12-15 15:00:00 15.7 14 Oeste 25 Oeste 0 1010.5 -3.3 82
2019-12-15 14:00:00 15.5 17 Oeste 26 Oeste 0 1011.3 -3.1 81
2019-12-15 13:00:00 15.3 17 Oeste 24 Oeste 0 1012.6 -1.3 83
2019-12-15 12:00:00 15 13 Oeste 19 Oeste 0 1013.8 0.4 81
2019-12-15 11:00:00 14.3 9 Oeste 17 Oeste 0 1014.4 1 83
2019-12-15 10:00:00 12.2 8 Noroeste 14 Noroeste 0 1013.9 0.6 88
2019-12-15 09:00:00 11.1 12 Noroeste 17 Norte 0 1013.4 -0.1 96
2019-12-15 08:00:00 11 11 Noroeste 18 Noroeste 0 1013.4 -0.5 94
2019-12-15 07:00:00 11 12 Noroeste 17 Norte 0 1013.3 -0.8 93
2019-12-15 06:00:00 11.2 11 Noroeste 18 Noroeste 0 1013.5 -1.1 92
2019-12-15 05:00:00 11.4 11 Noroeste 20 Noroeste 0 1013.9 -1 89
2019-12-15 04:00:00 11.5 10 Noroeste 18 Noroeste 0 1014.1 -1.6 87
2019-12-15 03:00:00 11.7 12 Noroeste 18 Noroeste 0 1014.6 -1.2 85
2019-12-15 02:00:00 11.7 11 Noroeste 17 Noroeste 0 1014.9 -1.1 86
2019-12-15 01:00:00 11.4 11 Noroeste 18 Oeste 0 1015.7 -0.6 84
2019-12-15 00:00:00 13 13 Oeste 21 Oeste 0 1015.8 -0.5 76
2019-12-14 23:00:00 12.3 13 Noroeste 20 Oeste 0 1016 -0.4 77
2019-12-14 22:00:00 13.4 12 Oeste 23 Oeste 0 1016.3 0.1 75
2019-12-14 21:00:00 13.5 13 Noroeste 28 Noroeste 0 1016.3 -0.1 75
2019-12-14 20:00:00 13.8 12 Noroeste 32 Oeste 0 1016.4 0.2 75
2019-12-14 19:00:00 14.6 19 Oeste 33 Oeste 0 1016.2 0.2 71
2019-12-14 18:00:00 14.7 15 Oeste 35 Oeste 0 1016.4 0.2 67
2019-12-14 17:00:00 15.5 19 Oeste 47 Oeste 0 1016.2 -0.4 63
2019-12-14 16:00:00 15.5 28 Oeste 45 Oeste 0 1016 -1.4 69
2019-12-14 15:00:00 15.4 24 Oeste 42 Oeste 0 1016.2 -1.8 73
2019-12-14 14:00:00 16 23 Oeste 37 Oeste 0 1016.6 -1.8 65
2019-12-14 13:00:00 15.7 20 Oeste 35 Sudoeste 0 1017.4 -1 77
2019-12-14 12:00:00 15.1 21 Oeste 33 Oeste 0 1018 -0.2 79
2019-12-14 11:00:00 14.3 15 Oeste 23 Oeste 0 1018.4 0.8 82
2019-12-14 10:00:00 13.5 13 Noroeste 27 Oeste 0 1018.4 0.9 86
2019-12-14 09:00:00 13 19 Oeste 33 Oeste 0 1018.2 0.9 86
2019-12-14 08:00:00 12.3 14 Noroeste 30 Norte 0 1017.6 0.2 85
2019-12-14 07:00:00 13 13 Noroeste 27 Oeste 0 1017.5 -0.5 87
2019-12-14 06:00:00 13.2 17 Noroeste 31 Oeste 0 1017.3 -1.1 88
2019-12-14 05:00:00 13.7 18 Oeste 29 Oeste 0 1017.4 -1.1 88
2019-12-14 04:00:00 14.1 14 Oeste 23 Oeste 0 1018 -1.2 86
2019-12-14 03:00:00 14.6 12 Noroeste 29 Oeste 0 1018.4 -0.9 83
2019-12-14 02:00:00 15.3 14 Oeste 33 Oeste 0 1018.5 -0.8 93
2019-12-14 01:00:00 15.4 19 Oeste 33 Oeste 0 1019.2 -0.2 92
2019-12-14 00:00:00 15.5 18 Oeste 32 Oeste 0 1019.3 0.1 93
2019-12-13 23:00:00 15.3 19 Oeste 32 Sudoeste 0 1019.3 0 94
2019-12-13 22:00:00 15.5 20 Oeste 32 Oeste 0 1019.4 0.4 93
2019-12-13 21:00:00 15.4 20 Oeste 38 Oeste 0 1019.2 0 92
2019-12-13 20:00:00 15.3 24 Oeste 38 Oeste 0 1019.3 0.3 92
2019-12-13 19:00:00 15.2 24 Oeste 39 Oeste 0 1019 -0.5 91
2019-12-13 18:00:00 15.3 21 Oeste 41 Oeste 0 1019.2 -0.6 88
2019-12-13 17:00:00 15.7 23 Oeste 37 Oeste 0 1019 -1.4 86
2019-12-13 16:00:00 15.7 19 Oeste 37 Sudoeste 0 1019.5 -1.5 93
2019-12-13 15:00:00 14.9 22 Sudoeste 42 Sudoeste 0 1019.8 -1.9 97
2019-12-13 14:00:00 14.3 30 Sudoeste 46 Sudoeste 0 1020.4 -1.4 97
2019-12-13 13:00:00 14 32 Sudoeste 51 Sudoeste 0 1021 -0.3 99
2019-12-13 12:00:00 13.7 26 Sudoeste 50 Sudoeste 0.4 1021.7 0.9 99
2019-12-13 11:00:00 12.9 33 Sudoeste 47 Sudoeste 0.4 1021.8 1.2 99
2019-12-13 10:00:00 15 25 Oeste 42 Oeste 0 1021.3 1.3 92
2019-12-13 09:00:00 14.7 22 Oeste 40 Oeste 0 1020.8 1.2 96
2019-12-13 08:00:00 14.9 25 Oeste 46 Oeste 0 1020.6 0.8 92
2019-12-13 07:00:00 15.5 24 Oeste 46 Oeste 0 1020 0.2 90
2019-12-13 06:00:00 14.9 31 Oeste 57 Oeste 0 1019.6 -0.4 93
2019-12-13 05:00:00 15.3 36 Oeste 60 Sudoeste 0 1019.8 -0.3 86
2019-12-13 04:00:00 15 36 Oeste 62 Oeste 0 1019.8 -1.3 85
2019-12-13 03:00:00 15.2 32 Oeste 54 Oeste 0 1020 -1.1 82
2019-12-13 02:00:00 15.5 29 Oeste 55 Oeste 0 1020.1 -0.7 79
2019-12-13 01:00:00 15.2 30 Oeste 51 Oeste 0 1021.1 0.2 82
2019-12-13 00:00:00 15.2 33 Oeste 52 Oeste 0 1021.1 0.3 80
2019-12-12 23:00:00 15 32 Oeste 46 Oeste 0 1020.8 -0.3 80
2019-12-12 22:00:00 14.8 26 Oeste 46 Oeste 0 1020.9 -0.1 78
2019-12-12 21:00:00 14.8 25 Oeste 49 Oeste 0 1020.8 -0.3 80
2019-12-12 20:00:00 14.8 28 Oeste 50 Oeste 0 1021.1 -0.6 74
2019-12-12 19:00:00 14.6 30 Oeste 46 Oeste 0 1021 -0.3 71
2019-12-12 18:00:00 14.5 23 Oeste 46 Oeste 0 1021.1 -0.7 71
2019-12-12 17:00:00 14.4 25 Oeste 43 Oeste 0 1021.7 -0.7 72
2019-12-12 16:00:00 14.5 24 Oeste 47 Oeste 0 1021.3 -2 68
2019-12-12 15:00:00 14.5 27 Oeste 44 Oeste 0 1021.8 -3 71
2019-12-12 14:00:00 14.3 24 Oeste 44 Oeste 0 1022.4 -1.2 74
2019-12-12 13:00:00 13.2 18 Noroeste 38 Oeste 0 1023.3 -0.7 70
2019-12-12 12:00:00 11.7 14 Noroeste 28 Oeste 0 1024.8 1.7 69
2019-12-12 11:00:00 10.5 20 Oeste 31 Oeste 0 1023.6 1 65
2019-12-12 10:00:00 9.4 16 Noroeste 33 Noroeste 0 1024 1.5 67
2019-12-12 09:00:00 8.9 20 Oeste 35 Oeste 0 1023.1 0.5 70
2019-12-12 08:00:00 8.6 19 Oeste 34 Oeste 0 1022.6 0.4 77
2019-12-12 07:00:00 8.7 6 Oeste 23 Oeste 0 1022.5 -0.1 80
2019-12-12 06:00:00 8.5 11 Noroeste 21 Noroeste 0 1022.6 0.3 83
2019-12-12 05:00:00 8.7 5 Noroeste 17 Noroeste 0 1022.2 -0.3 81
2019-12-12 04:00:00 9.4 6 Noroeste 32 Oeste 0 1022.6 0.3 81
2019-12-12 03:00:00 10 17 Noroeste 31 Noroeste 0 1022.3 -0.6 80
2019-12-12 02:00:00 10.4 20 Oeste 31 Oeste 0 1022.5 -0.2 82
2019-12-12 01:00:00 10.8 19 Noroeste 29 Noroeste 0 1022.3 -0.5 82
2019-12-12 00:00:00 11.3 15 Oeste 20 Noroeste 0 1022.9 0 83
2019-12-11 23:00:00 11.7 13 Noroeste 21 Norte 0 1022.7 0.4 83
2019-12-11 22:00:00 12.6 9 Noroeste 20 Noroeste 0 1022.8 0.8 78
2019-12-11 21:00:00 14.1 12 Oeste 28 Noroeste 0 1022.9 1.1 74
2019-12-11 20:00:00 14.2 15 Noroeste 39 Noroeste 0 1022.3 0.9 82
2019-12-11 19:00:00 15 18 Oeste 37 Oeste 0 1022 0.8 76
2019-12-11 18:00:00 15.1 21 Oeste 36 Oeste 0 1021.8 0.8 77
2019-12-11 17:00:00 15.2 18 Oeste 32 Oeste 0 1021.4 -0.6 79
2019-12-11 16:00:00 15.1 19 Oeste 28 Oeste 0 1021.2 -1.1 78
2019-12-11 15:00:00 15.8 14 Oeste 29 Oeste 0 1021 -2 72
2019-12-11 14:00:00 15.6 16 Oeste 44 Oeste 0 1022 -0.8 80
2019-12-11 13:00:00 15.8 23 Oeste 44 Oeste 0 1022.3 -- 85
2019-12-11 12:00:00 15.2 22 Oeste 36 Sudoeste 0 1023 -- 89
2019-12-11 11:00:00 15 22 Oeste -- -- -- 1022.8 -- 89
2019-12-11 10:00:00 -- -- -- -- -- -- -- -- --
2019-12-11 09:00:00 -- -- -- -- -- -- -- -- --
2019-12-11 08:00:00 -- -- -- -- -- -- -- -- --
2019-12-11 07:00:00 -- -- -- -- -- -- -- -- --
2019-12-11 06:00:00 -- -- -- -- -- -- -- -- --
2019-12-11 05:00:00 -- -- -- -- -- -- -- -- --
2019-12-11 04:00:00 -- -- -- -- -- -- -- -- --
2019-12-11 03:00:00 -- -- -- -- -- -- -- -- --
2019-12-11 02:00:00 -- -- -- -- -- -- -- -- --
2019-12-11 01:00:00 -- -- -- -- -- -- -- -- --
2019-12-11 00:00:00 -- -- -- -- -- -- -- -- --
2019-12-10 23:00:00 -- -- -- -- -- -- -- -- --
2019-12-10 22:00:00 -- -- -- -- -- -- -- -- --
2019-12-10 21:00:00 -- -- -- -- -- -- -- -- --
2019-12-10 20:00:00 -- -- -- -- -- -- -- -- --
2019-12-10 19:00:00 -- -- -- -- -- -- -- -- --
2019-12-10 18:00:00 -- -- -- -- -- -- -- -- --
2019-12-10 17:00:00 -- -- -- -- -- -- -- -- --
2019-12-10 16:00:00 -- -- -- -- -- -- -- -- --
2019-12-10 15:00:00 -- -- -- -- -- -- -- -- --
2019-12-10 14:00:00 -- -- -- -- -- -- -- -- --
2019-12-10 13:00:00 -- -- -- -- -- -- -- -- --
2019-12-10 12:00:00 -- -- -- -- -- -- -- -- --
2019-12-10 11:00:00 -- -- -- -- -- -- -- -- --
2019-12-10 10:00:00 -- -- -- -- -- -- -- -- --
2019-12-10 09:00:00 -- -- -- -- -- -- -- -- --
2019-12-10 08:00:00 -- -- -- -- -- -- -- -- --
2019-12-10 07:00:00 -- -- -- -- -- -- -- -- --
2019-12-10 06:00:00 -- -- -- -- -- -- -- -- --
2019-12-10 05:00:00 -- -- -- -- -- -- -- -- --
2019-12-10 04:00:00 -- -- -- -- -- -- -- -- --
2019-12-10 03:00:00 -- -- -- -- -- -- -- -- --
2019-12-10 02:00:00 -- -- -- -- -- -- -- -- --
2019-12-10 01:00:00 -- -- -- -- -- -- -- -- --
2019-12-10 00:00:00 -- -- -- -- -- -- -- -- --
2019-12-09 23:00:00 -- -- -- -- -- -- -- -- --
2019-12-09 22:00:00 -- -- -- -- -- -- -- -- --
2019-12-09 21:00:00 -- -- -- -- -- -- -- -- --
2019-12-09 20:00:00 -- -- -- -- -- -- -- -- --
2019-12-09 19:00:00 -- -- -- -- -- -- -- -- --
2019-12-09 18:00:00 -- -- -- -- -- -- -- -- --
2019-12-09 17:00:00 -- -- -- -- -- -- -- -- --
2019-12-09 16:00:00 -- -- -- -- -- -- -- -- --
2019-12-09 15:00:00 -- -- -- -- -- -- -- -- --
2019-12-09 14:00:00 -- -- -- -- -- -- -- -- --
2019-12-09 13:00:00 -- -- -- -- -- -- -- -- --
2019-12-09 12:00:00 -- -- -- -- -- -- -- -- --
2019-12-09 11:00:00 -- -- -- -- -- -- -- -- --
2019-12-09 10:00:00 -- -- -- -- -- -- -- -- --
2019-12-09 09:00:00 -- -- -- -- -- -- -- -- --
2019-12-09 08:00:00 -- -- -- -- -- -- -- -- --
2019-12-09 07:00:00 -- -- -- -- -- -- -- -- --
2019-12-09 06:00:00 -- -- -- -- -- -- -- -- --
2019-12-09 05:00:00 -- -- -- -- -- -- -- -- --
2019-12-09 04:00:00 -- -- -- -- -- -- -- -- --
2019-12-09 03:00:00 -- -- -- -- -- -- -- -- --
2019-12-09 02:00:00 -- -- -- -- -- -- -- -- --
2019-12-09 01:00:00 -- -- -- -- -- -- -- -- --
2019-12-09 00:00:00 -- -- -- -- -- -- -- -- --
2019-12-08 23:00:00 -- -- -- -- -- -- -- -- --
2019-12-08 22:00:00 -- -- -- -- -- -- -- -- --
2019-12-08 21:00:00 -- -- -- -- -- -- -- -- --
2019-12-08 20:00:00 -- -- -- -- -- -- -- -- --
2019-12-08 19:00:00 -- -- -- -- -- -- -- -- --
2019-12-08 18:00:00 -- -- -- -- -- -- -- -- --
2019-12-08 17:00:00 -- -- -- -- -- -- -- -- --
2019-12-08 16:00:00 -- -- -- -- -- -- -- -- --
2019-12-08 15:00:00 -- -- -- -- -- -- -- -- --
2019-12-08 14:00:00 -- -- -- -- -- -- -- -- --
2019-12-08 13:00:00 -- -- -- -- -- -- -- -- --
2019-12-08 12:00:00 -- -- -- -- -- -- -- -- --
2019-12-08 11:00:00 -- -- -- -- -- -- -- -- --
2019-12-08 10:00:00 12.3 5 Noroeste 8 Noroeste 0 1022.2 1.7 99
2019-12-08 09:00:00 10.1 6 Nordeste 7 Nordeste 0 1021.5 1.4 99
2019-12-08 08:00:00 9.6 5 Norte 6 Nordeste 0 1021 0.6 99
2019-12-08 07:00:00 9.5 5 Nordeste 10 Nordeste 0 1020.5 0.2 99
2019-12-08 06:00:00 9.7 3 Nordeste 8 Norte 0 1020.1 -0.4 99
2019-12-08 05:00:00 10.8 5 Nordeste 8 Nordeste 0 1020.4 0.1 99
2019-12-08 04:00:00 10.3 6 Nordeste 9 Este 0 1020.3 -0.3 98
2019-12-08 03:00:00 11.5 5 Norte 8 Norte 0 1020.5 -0.2 96
2019-12-08 02:00:00 12.1 6 Nordeste 11 Este 0 1020.3 -0.2 97
2019-12-08 01:00:00 11.5 7 Nordeste 11 Nordeste 0 1020.6 0.3 96
2019-12-08 00:00:00 12.7 6 Norte 11 Nordeste 0 1020.7 1 92
2019-12-07 23:00:00 13.3 6 Nordeste 12 Nordeste 0 1020.5 1.3 96
2019-12-07 22:00:00 14 4 Nordeste 14 Este 0 1020.3 1.6 94
2019-12-07 21:00:00 14.1 7 Nordeste 14 Este 0 1019.7 1.2 94
2019-12-07 20:00:00 14.3 10 Nordeste 18 Este 0 1019.2 1.5 92
2019-12-07 19:00:00 14.5 12 Este 19 Este 0 1018.7 1.3 91
2019-12-07 18:00:00 15.1 9 Nordeste 21 Nordeste 0 1018.5 1.2 89
2019-12-07 17:00:00 16.3 11 Nordeste 24 Este 0 1017.7 0.1 86
2019-12-07 16:00:00 16.7 17 Este -- -- -- 1017.4 -0.8 83
2019-12-07 15:00:00 16.7 18 Este 31 Este 0 1017.3 -1.1 83
2019-12-07 14:00:00 16.7 19 Este 31 Este 0 1017.6 -0.1 82
2019-12-07 13:00:00 17.1 17 Este 35 Este 0 1018.2 0.9 80
2019-12-07 12:00:00 16.7 22 Este 41 Este 0 1018.4 1.4 82
2019-12-07 11:00:00 16.3 27 Este 41 Este 0 1017.7 1.8 83
2019-12-07 10:00:00 15.5 26 Este 38 Este 0 1017.3 1.4 84
2019-12-07 09:00:00 14.8 20 Nordeste 37 Este 0 1017 1.7 83
2019-12-07 08:00:00 14.6 23 Este 37 Este 0 1015.9 1 86
2019-12-07 07:00:00 14.6 23 Este 36 Este 0 1015.9 1.2 86
2019-12-07 06:00:00 14.6 21 Este 44 Este 0 1015.3 0.4 89
2019-12-07 05:00:00 14.6 26 Este 46 Este 0 1014.9 -0.1 89
2019-12-07 04:00:00 14.6 27 Este 47 Este 0 1014.7 -0.2 91
2019-12-07 03:00:00 14.7 28 Este 47 Este 0 1014.9 -0.1 91
2019-12-07 02:00:00 14.8 27 Este 56 Este 0 1015 0.3 90
2019-12-07 01:00:00 15.1 34 Este 49 Este 0 1014.9 0.6 88
2019-12-07 00:00:00 14.7 31 Nordeste 51 Este 0 1015 0.7 89
2019-12-06 23:00:00 14.7 28 Este 54 Este 0 1014.7 0.6 89
2019-12-06 22:00:00 14.8 36 Este 54 Este 0 1014.3 0.9 88
2019-12-06 21:00:00 14.8 27 Nordeste 50 Este 0 1014.3 1.2 88
2019-12-06 20:00:00 14.9 31 Nordeste 46 Nordeste 0 1014.1 1.4 87
2019-12-06 19:00:00 14.9 28 Nordeste 50 Nordeste 0 1013.4 1.3 87
2019-12-06 18:00:00 14.9 24 Nordeste 47 Nordeste 0 1013.1 1.1 87
2019-12-06 17:00:00 15.4 31 Este 53 Este 0 1012.7 0.7 86
2019-12-06 16:00:00 15.2 33 Este 52 Nordeste 0 1012.1 -0.7 87
2019-12-06 15:00:00 15.6 37 Este 57 Este 0 1012 -1.3 85
2019-12-06 14:00:00 16.3 37 Este 57 Este 0 1012 -1.6 83
2019-12-06 13:00:00 16.5 37 Este 59 Este 0 1012.8 0 81
2019-12-06 12:00:00 15.9 33 Este 57 Nordeste 0 1013.3 1.9 85
2019-12-06 11:00:00 15.1 30 Nordeste 51 Este 0 1013.6 2.5 87
2019-12-06 10:00:00 15 29 Nordeste 56 Este 0 1012.8 2 86
2019-12-06 09:00:00 14.8 32 Este 59 Nordeste 0 1011.4 0.9 87
2019-12-06 08:00:00 14.7 35 Este 58 Este 0 1011.1 1.3 85
2019-12-06 07:00:00 14.7 38 Este 58 Este 0 1010.8 1.3 85
2019-12-06 06:00:00 14.7 32 Nordeste 57 Este 0 1010.5 0.5 86
2019-12-06 05:00:00 14.7 38 Este 65 Este 0 1009.8 0 86
2019-12-06 04:00:00 14.6 40 Este 59 Este 0 1009.5 -0.5 85
2019-12-06 03:00:00 14.7 31 Este 56 Este 0 1010 -0.4 85
2019-12-06 02:00:00 14.7 34 Este 55 Este 0 1009.8 -0.2 87
2019-12-06 01:00:00 14.7 32 Este 52 Este 0 1010 0.1 86
2019-12-06 00:00:00 14.8 33 Este 54 Este 0 1010.4 0.5 86
2019-12-05 23:00:00 14.7 35 Este 60 Nordeste 0 1010 0.7 85
2019-12-05 22:00:00 14.7 33 Este 55 Este 0 1009.9 1.4 86
2019-12-05 21:00:00 14.6 26 Nordeste 49 Este 0 1009.9 1.8 88
2019-12-05 20:00:00 14.3 29 Nordeste 47 Este 0 1009.3 1.4 86
2019-12-05 19:00:00 14.2 27 Nordeste 46 Este 0 1008.5 0.7 82
2019-12-05 18:00:00 14.3 27 Nordeste 45 Este 0 1008.1 0.5 87
2019-12-05 17:00:00 14.6 26 Nordeste 39 Nordeste 0 1007.9 0.1 77
2019-12-05 16:00:00 14.8 22 Nordeste 38 Este 0 1007.8 -0.4 75
2019-12-05 15:00:00 15.3 23 Este 40 Este 0 1007.6 -1.2 78
2019-12-05 14:00:00 15.2 19 Este 32 Este 0 1007.8 -1.1 78
2019-12-05 13:00:00 15 19 Este 29 Este 0 1008.2 -0.1 76
2019-12-05 12:00:00 14.7 19 Este 28 Este 0 1008.8 1 75
2019-12-05 11:00:00 14.8 11 Este 18 Sudeste 0 1008.9 1.8 61
2019-12-05 10:00:00 12.4 4 Este 12 Este 0 1008.3 1.7 72
2019-12-05 09:00:00 11.3 6 Nordeste 12 Nordeste 0 1007.8 1.6 94
2019-12-05 08:00:00 10.5 5 Norte 11 Nordeste 0 1007.1 1.1 96
2019-12-05 07:00:00 11.7 0 Calma 8 Sur 0 1006.6 0.4 92
2019-12-05 06:00:00 12.6 7 Sur 13 Sur 0 1006.2 0.2 90
2019-12-05 05:00:00 12.7 12 Sur 18 Sur 0 1006 0.2 92
2019-12-05 04:00:00 11.5 5 Norte 8 Norte 0 1006.2 0.1 86
2019-12-05 03:00:00 11.7 7 Norte 15 Norte 0 1006 -0.1 85
2019-12-05 02:00:00 11.9 9 Norte 19 Norte 0 1005.8 -0.1 84
2019-12-05 01:00:00 11.7 10 Noroeste 14 Noroeste 0 1006.1 0.2 90
2019-12-05 00:00:00 11.9 6 Noroeste 13 Norte 0 1006.1 0.2 88
2019-12-04 23:00:00 11.4 10 Norte 13 Norte 0 1005.9 0.4 89
2019-12-04 22:00:00 11.8 7 Noroeste 12 Oeste 0.1 1005.9 1.1 85
2019-12-04 21:00:00 12.1 6 Noroeste 13 Noroeste 0 1005.9 1.1 77
2019-12-04 20:00:00 12.3 7 Noroeste 18 Norte 0 1005.5 0.7 74
2019-12-04 19:00:00 12.3 11 Norte 16 Norte 0 1004.8 -0.1 74
2019-12-04 18:00:00 13.7 9 Noroeste 18 Oeste 0 1004.8 0.4 72
2019-12-04 17:00:00 14 14 Oeste 27 Oeste 0 1004.8 -0.1 69
2019-12-04 16:00:00 14.1 19 Oeste 34 Oeste 0 1004.9 -0.6 69
2019-12-04 15:00:00 14.8 24 Oeste 36 Oeste 0 1004.4 -1.5 60
2019-12-04 14:00:00 14.7 15 Oeste 33 Oeste 0 1004.9 -1.7 74
2019-12-04 13:00:00 14.9 23 Oeste 34 Oeste 0 1005.5 -0.2 69
2019-12-04 12:00:00 14.4 12 Oeste 24 Noroeste 0 1005.9 0.9 75
2019-12-04 11:00:00 13.7 13 Noroeste 28 Oeste 0 1006.6 1.9 76
2019-12-04 10:00:00 13.3 17 Noroeste 35 Noroeste 0 1005.7 0.9 82
2019-12-04 09:00:00 14.1 21 Noroeste 38 Oeste 0 1005 0.6 86
2019-12-04 08:00:00 14.1 16 Noroeste 29 Noroeste 0 1004.7 -0.6 88
2019-12-04 07:00:00 14.2 19 Sudoeste 34 Sudoeste 0 1004.8 -0.8 91
2019-12-04 06:00:00 14.7 16 Oeste 26 Oeste 0 1004.4 -1.6 81
2019-12-04 05:00:00 14.5 12 Noroeste 29 Oeste 0 1005.3 -1.5 85
2019-12-04 04:00:00 14.7 17 Oeste 32 Oeste 0 1005.6 -1.4 81
2019-12-04 03:00:00 13 10 Noroeste 14 Noroeste 0 1006 -1 88
2019-12-04 02:00:00 12.6 10 Noroeste 15 Noroeste 0 1006.8 0.1 86
2019-12-04 01:00:00 11.9 9 Noroeste 16 Noroeste 0 1007 0.5 93
2019-12-04 00:00:00 13.7 6 Noroeste 23 Oeste 0 1007 0.8 91
2019-12-03 23:00:00 14.3 14 Sudoeste 30 Sudoeste 0 1006.7 0.8 92
2019-12-03 22:00:00 14.4 14 Sudoeste 25 Sudoeste 0 1006.5 0.6 89
2019-12-03 21:00:00 14.4 7 Sudoeste 17 Sudoeste 0 1006.2 1.1 88
2019-12-03 20:00:00 14.4 8 Sudoeste 17 Sur 0 1005.9 1.4 89
2019-12-03 19:00:00 13.9 0 Calma 6 Noroeste 0 1005.9 1.9 87
2019-12-03 18:00:00 14.5 6 Oeste 12 Oeste 0 1005.1 1 83
2019-12-03 17:00:00 14.8 8 Oeste 15 Oeste 0 1004.5 0.1 82
2019-12-03 16:00:00 15.1 9 Oeste 15 Oeste 0 1004 -0.7 80
2019-12-03 15:00:00 15.1 5 Sudoeste 16 Oeste 0 1004.1 -1 80
2019-12-03 14:00:00 14.6 3 Sur 8 Sur 0 1004.4 -0.8 83
2019-12-03 13:00:00 14 3 Noroeste 13 Noroeste 0 1004.7 -0.3 81
2019-12-03 12:00:00 13.7 5 Oeste 13 Noroeste 0 1005.1 0.3 85
2019-12-03 11:00:00 13.5 9 Oeste 17 Noroeste 0 1005.2 0.3 85
2019-12-03 10:00:00 12.5 11 Noroeste 18 Noroeste 0 1005 0.6 87
2019-12-03 09:00:00 12.2 4 Norte 9 Este 0 1004.8 0.1 91
2019-12-03 08:00:00 12.5 4 Nordeste 13 Este 0 1004.9 0.4 87
2019-12-03 07:00:00 12.9 4 Nordeste 23 Nordeste 0 1004.4 -0.6 86
2019-12-03 06:00:00 12.5 16 Nordeste 22 Nordeste 0 1004.7 -0.5 87
2019-12-03 05:00:00 12.5 12 Nordeste 22 Nordeste 0 1004.5 -0.6 91
2019-12-03 04:00:00 13.4 16 Nordeste 34 Nordeste 0 1005 -0.3 89
2019-12-03 03:00:00 13.8 20 Nordeste 31 Este 0 1005.2 -0.2 87
2019-12-03 02:00:00 13.6 17 Nordeste 34 Nordeste 0 1005.1 -0.5 89
2019-12-03 01:00:00 13.9 23 Nordeste 39 Este 0 1005.3 -0.4 90
2019-12-03 00:00:00 13.9 21 Nordeste 36 Nordeste 0 1005.4 0.1 92
2019-12-02 23:00:00 13.5 19 Nordeste 32 Nordeste 0 1005.6 0 93
2019-12-02 22:00:00 13.7 19 Nordeste 32 Este 0.4 1005.7 1.7 94
2019-12-02 21:00:00 11 9 Nordeste 37 Este 4.1 1005.3 1.7 97
2019-12-02 20:00:00 12.1 27 Este 43 Este 1.6 1005.6 2.8 92
2019-12-02 19:00:00 13.5 19 Nordeste 30 Nordeste 0 1004 1.3 84
2019-12-02 18:00:00 12.5 22 Nordeste 40 Nordeste 0 1003.6 0.8 85
2019-12-02 17:00:00 13.1 26 Nordeste 42 Nordeste 0 1002.8 -0.3 79
2019-12-02 16:00:00 12.6 22 Nordeste 37 Nordeste 0 1002.7 -0.9 80
2019-12-02 15:00:00 12.7 24 Nordeste 35 Nordeste 0 1002.8 -1.3 87
2019-12-02 14:00:00 12.9 19 Nordeste 33 Nordeste 0 1003.1 -0.9 89
2019-12-02 13:00:00 13.8 17 Este 31 Este 0 1003.6 -0.1 84
2019-12-02 12:00:00 14.4 6 Nordeste 15 Norte 0 1004.1 0.9 78
2019-12-02 11:00:00 12.9 8 Nordeste 21 Sudeste 0.1 1004 1 94
2019-12-02 10:00:00 13 9 Sudeste 24 Sur 0.2 1003.7 1 89
2019-12-02 09:00:00 12.9 17 Sur 23 Sur 0 1003.2 0.4 91
2019-12-02 08:00:00 12.7 9 Sudoeste 30 Sudoeste 1.1 1003 0 92
2019-12-02 07:00:00 12.8 20 Sur 31 Sur 3 1002.7 -0.7 94
2019-12-02 06:00:00 13.2 23 Sur 34 Sur 0.9 1002.8 -1 93
2019-12-02 05:00:00 12.7 9 Sur 21 Sur 0 1003 -1.5 94
2019-12-02 04:00:00 12.7 6 Oeste 18 Oeste 0.1 1003.4 -1.7 89
2019-12-02 03:00:00 12.4 8 Noroeste 15 Noroeste 0.1 1003.8 -1.6 90
2019-12-02 02:00:00 13 10 Noroeste 21 Norte 0 1004.5 -1.4 85
2019-12-02 01:00:00 14 14 Noroeste 32 Oeste 0 1005.1 -1.1 83
2019-12-02 00:00:00 14.9 19 Oeste 36 Oeste 0 1005.4 -1.3 80
2019-12-01 23:00:00 14.8 15 Oeste 31 Oeste 0 1005.9 -1.1 81
2019-12-01 22:00:00 14.8 15 Oeste 33 Oeste 0 1006.2 -1 81
2019-12-01 21:00:00 14.9 18 Oeste 36 Oeste 0 1006.7 -0.4 82
2019-12-01 20:00:00 14.7 21 Oeste 38 Oeste 0.2 1007 -0.3 87
2019-12-01 19:00:00 14.2 23 Oeste 53 Sudoeste 0.4 1007.2 -0.4 89
2019-12-01 18:00:00 14.1 25 Oeste 55 Oeste 1 1007.1 -1.2 96
2019-12-01 17:00:00 14.4 9 Oeste 37 Sudoeste 1.9 1007.3 -1.9 93
2019-12-01 16:00:00 15.1 25 Sudoeste 37 Sudoeste 1.4 1007.6 -2.7 90
2019-12-01 15:00:00 16.7 22 Sudoeste 32 Sudoeste 0 1008.3 -2.9 82
2019-12-01 14:00:00 16.4 16 Oeste 29 Oeste 0 1009.2 -2.3 74
2019-12-01 13:00:00 16 16 Oeste 27 Oeste 0 1010.3 -0.7 79
2019-12-01 12:00:00 15.2 13 Oeste 22 Oeste 0 1011.2 0 78
2019-12-01 11:00:00 14.8 18 Oeste 28 Oeste 0 1011.5 0.2 76
2019-12-01 10:00:00 14.4 17 Sudoeste 26 Sudoeste 1.3 1011 0.1 98
2019-12-01 09:00:00 13.6 6 Oeste 19 Noroeste 0.2 1011.2 0.2 98
2019-12-01 08:00:00 13.8 10 Oeste 17 Noroeste 0.4 1011.3 -0.3 97
2019-12-01 07:00:00 12.7 14 Noroeste 29 Noroeste 0.1 1010.9 -1.2 96
2019-12-01 06:00:00 14 14 Noroeste 30 Noroeste 0 1011 -1.6 93
2019-12-01 05:00:00 14.8 16 Oeste 36 Sudoeste 1 1011.6 -1.7 97
2019-12-01 04:00:00 15.4 23 Sudoeste 35 Sudoeste 0 1012.1 -2.1 93
2019-12-01 03:00:00 15.4 21 Sudoeste 31 Sudoeste 0 1012.6 -2.1 92
2019-12-01 02:00:00 15.7 15 Sudoeste 28 Sudoeste 0 1013.3 -1.9 93
2019-12-01 01:00:00 14.4 9 Noroeste 16 Noroeste 0 1014.2 -1.3 93
2019-12-01 00:00:00 14.1 8 Noroeste 19 Noroeste 0 1014.7 -1 93
2019-11-30 23:00:00 13.8 11 Noroeste 17 Noroeste 0 1015.2 -0.6 88
2019-11-30 22:00:00 14.3 10 Noroeste 30 Oeste 0 1015.5 0.3 83
2019-11-30 21:00:00 14.7 19 Oeste 29 Oeste 0 1015.7 0.5 93
2019-11-30 20:00:00 14.7 18 Oeste 27 Oeste 0 1015.8 0.5 91
2019-11-30 19:00:00 15 13 Oeste 28 Oeste 0 1015.2 -0.3 90
2019-11-30 18:00:00 15.4 17 Oeste 28 Oeste 0 1015.2 -0.4 86
2019-11-30 17:00:00 16.2 18 Oeste 29 Oeste 0 1015.3 -1.1 83
2019-11-30 16:00:00 16.5 17 Oeste 30 Oeste 0 1015.5 -1.8 86
2019-11-30 15:00:00 16.6 14 Oeste 23 Oeste 0 1015.6 -2.3 84
2019-11-30 14:00:00 15.8 12 Oeste 23 Oeste 0 1016.4 -1.6 82
2019-11-30 13:00:00 15.1 13 Oeste 20 Oeste 0 1017.3 -0.4 88
2019-11-30 12:00:00 14.6 12 Oeste 16 Oeste 0 1017.9 0.8 89
2019-11-30 11:00:00 13.7 6 Oeste 10 Noroeste 0 1018 1.3 94
2019-11-30 10:00:00 14 6 Noroeste 10 Noroeste 0 1017.7 1.4 92
2019-11-30 09:00:00 12.6 5 Noroeste 10 Noroeste 0 1017.1 1.2 97
2019-11-30 08:00:00 11.7 5 Noroeste 16 Noroeste 0 1016.7 0.3 97
2019-11-30 07:00:00 11.8 4 Noroeste 8 Noroeste 0 1016.3 -0.3 95
2019-11-30 06:00:00 11.7 4 Noroeste 8 Noroeste 0 1015.9 -0.8 97
2019-11-30 05:00:00 11.6 4 Noroeste 10 Norte 0 1016.4 -0.2 95
2019-11-30 04:00:00 11.2 6 Norte 10 Noroeste 0 1016.6 0 96
2019-11-30 03:00:00 12.3 8 Noroeste 10 Noroeste 0 1016.7 0.1 94
2019-11-30 02:00:00 11.8 6 Noroeste 9 Noroeste 0 1016.6 0.1 98
2019-11-30 01:00:00 12.3 0 Calma 8 Sur 0 1016.6 0.1 96
2019-11-30 00:00:00 11.4 4 Norte 9 Sur 0 1016.6 0.2 94
2019-11-29 23:00:00 14 0 Calma 11 Noroeste 0 1016.5 0.2 87
2019-11-29 22:00:00 15.1 8 Noroeste 14 Norte 0 1016.5 0.2 80
2019-11-29 21:00:00 15.9 6 Oeste 12 Noroeste 0 1016.4 0.3 78
2019-11-29 20:00:00 15.7 8 Oeste 17 Oeste 0 1016.3 0.5 86
2019-11-29 19:00:00 15.6 12 Oeste 23 Oeste 0 1016.3 0.7 94
2019-11-29 18:00:00 15.9 14 Oeste 27 Oeste 0 1016.1 0.1 92
2019-11-29 17:00:00 16.6 15 Oeste 28 Oeste 0 1015.8 -0.6 86
2019-11-29 16:00:00 16.9 17 Oeste 29 Oeste 0 1015.6 -1.4 85
2019-11-29 15:00:00 17 16 Oeste 27 Oeste 0 1016 -1.6 83
2019-11-29 14:00:00 16.8 17 Oeste 30 Oeste 0 1016.4 -1.2 84
2019-11-29 13:00:00 16.3 19 Oeste 30 Sudoeste 0 1017 -0.1 85
2019-11-29 12:00:00 15.7 16 Oeste 26 Oeste 0 1017.6 0.9 85
2019-11-29 11:00:00 14.7 14 Noroeste 24 Oeste 0 1017.6 1.3 86
2019-11-29 10:00:00 14.1 15 Oeste 23 Oeste 0 1017.1 1.3 88
2019-11-29 09:00:00 12.1 7 Norte 22 Oeste 0 1016.7 1.2 92
2019-11-29 08:00:00 12.2 14 Noroeste 22 Noroeste 0 1016.3 0.8 91
2019-11-29 07:00:00 11.7 14 Noroeste 20 Noroeste 0 1015.8 0.1 93
2019-11-29 06:00:00 11.7 13 Noroeste 21 Noroeste 0 1015.5 0 94
2019-11-29 05:00:00 12.1 10 Noroeste 17 Noroeste 0 1015.5 -0.1 92
2019-11-29 04:00:00 12 8 Noroeste 13 Oeste 0 1015.7 0 92
2019-11-29 03:00:00 12.1 7 Noroeste 11 Norte 0 1015.5 -0.3 92
2019-11-29 02:00:00 11.9 6 Noroeste 13 Noroeste 0 1015.6 -0.3 92
2019-11-29 01:00:00 11.7 6 Noroeste 12 Noroeste 0 1015.7 0.1 94
2019-11-29 00:00:00 13.2 9 Oeste 10 Oeste 0 1015.8 0.6 91
2019-11-28 23:00:00 13.8 6 Noroeste 10 Noroeste 0 1015.9 1.1 89
2019-11-28 22:00:00 13.8 7 Noroeste 15 Noroeste 0 1015.6 1.3 91
2019-11-28 21:00:00 14.1 10 Noroeste 15 Noroeste 0 1015.2 1.1 89
2019-11-28 20:00:00 14.5 12 Norte 15 Norte 0 1014.8 0.7 85
2019-11-28 19:00:00 15.4 4 Noroeste 21 Oeste 0 1014.3 0.3 85
2019-11-28 18:00:00 15.7 15 Oeste 24 Oeste 0 1014.1 0.1 87
2019-11-28 17:00:00 16.8 12 Oeste 23 Oeste 0 1014.1 -0.5 88
2019-11-28 16:00:00 16.9 16 Oeste 25 Oeste 0 1014 -1.3 89
2019-11-28 15:00:00 17.1 16 Oeste 24 Sudoeste 0 1014 -2.1 89
2019-11-28 14:00:00 17.2 15 Sudoeste 22 Sudoeste 0 1014.6 -1.5 83
2019-11-28 13:00:00 16.6 13 Oeste 20 Sudoeste 0 1015.3 -0.4 90
2019-11-28 12:00:00 16.3 12 Sudoeste 18 Sudoeste 0 1016.1 1.1 93
2019-11-28 11:00:00 15.4 8 Oeste 13 Oeste 0.1 1016.1 1.7 93
2019-11-28 10:00:00 14.5 6 Noroeste 13 Noroeste 0 1015.7 1.6 96
2019-11-28 09:00:00 13.7 7 Noroeste 16 Norte 0 1015 1.4 97
2019-11-28 08:00:00 13.2 9 Noroeste 15 Norte 0 1014.4 0.9 96
2019-11-28 07:00:00 13.4 11 Norte 16 Norte 0 1014.1 0.6 96
2019-11-28 06:00:00 13.9 7 Noroeste 13 Norte 0 1013.6 0.1 96
2019-11-28 05:00:00 13.3 11 Norte 14 Noroeste 0 1013.5 -0.2 98
2019-11-28 04:00:00 13 6 Noroeste 12 Noroeste 0 1013.5 -0.6 94
2019-11-28 03:00:00 14 7 Noroeste 13 Norte 0 1013.5 -0.7 93
2019-11-28 02:00:00 13.8 8 Noroeste 14 Noroeste 0 1013.7 -0.3 94
2019-11-28 01:00:00 14.1 9 Norte 15 Noroeste 0 1014.1 0.6 95
2019-11-28 00:00:00 15.1 10 Noroeste 20 Noroeste 0 1014.2 1.1 98
2019-11-27 23:00:00 14.8 6 Noroeste 15 Oeste 0 1014 1.1 99
2019-11-27 22:00:00 15.1 8 Noroeste 22 Oeste 0 1013.5 1.4 99
2019-11-27 21:00:00 15.3 7 Oeste 22 Oeste 0 1013.1 1.2 99
2019-11-27 20:00:00 15.7 14 Oeste 24 Sudoeste 0 1012.9 1.1 99
2019-11-27 19:00:00 15.7 14 Sudoeste 32 Sudoeste 0 1012.1 0.7 98
2019-11-27 18:00:00 15.9 21 Sudoeste 33 Sudoeste 0 1011.9 0.2 98
2019-11-27 17:00:00 15.7 18 Sudoeste 32 Sudoeste 0 1011.8 -0.2 99
2019-11-27 16:00:00 16 17 Sudoeste 33 Sudoeste 0 1011.4 -1.1 97
2019-11-27 15:00:00 15.4 18 Sudoeste 34 Sudoeste 0 1011.7 -1.3 98
2019-11-27 14:00:00 15.5 18 Sudoeste 31 Sudoeste 0.2 1012 -1.3 99
2019-11-27 06:00:00 15 21 Oeste 40 Sudoeste 3 1010.9 -0.4 99
2019-11-27 05:00:00 16.1 24 Sudoeste 38 Sudoeste 0 1010.5 -1 95
2019-11-27 04:00:00 16.2 22 Sudoeste 36 Sudoeste 0 1010.9 -1 96
2019-11-27 03:00:00 16.2 20 Sudoeste 33 Sudoeste 0 1011.3 -0.9 97
2019-11-27 02:00:00 16.3 24 Sudoeste 36 Sudoeste 0 1011.5 -0.5 97
2019-11-27 01:00:00 16.3 18 Sudoeste 32 Sudoeste 0 1011.9 -0.3 97
2019-11-27 00:00:00 16.6 22 Sudoeste 30 Sudoeste 0 1012.2 0 96
2019-11-26 23:00:00 16.5 18 Sudoeste 31 Sudoeste 0 1012 0.1 97
2019-11-26 22:00:00 16.4 19 Sudoeste 33 Sudoeste 0 1012.2 0.7 98
2019-11-26 21:00:00 16.4 17 Sudoeste 34 Sudoeste 0 1012.2 0.9 99
2019-11-26 20:00:00 16.5 16 Oeste 35 Sudoeste 0 1011.9 0.7 99
2019-11-26 19:00:00 16.4 17 Sudoeste 31 Sudoeste 0 1011.5 0.5 99
2019-11-26 18:00:00 16.5 16 Oeste 29 Oeste 0 1011.3 0 98
2019-11-26 17:00:00 16.6 18 Oeste 31 Sudoeste 0 1011.2 -0.6 97
2019-11-26 16:00:00 16.7 15 Oeste 29 Sudoeste 0 1011 -1.4 97
2019-11-26 15:00:00 16.6 15 Oeste 27 Oeste 0 1011.3 -2 98
2019-11-26 14:00:00 16.7 15 Oeste 26 Oeste 0 1011.8 -1.5 99
2019-11-26 13:00:00 16.1 14 Oeste 24 Sudoeste 0.1 1012.4 -0.8 99
2019-11-26 12:00:00 16.2 15 Sudoeste 24 Sudoeste 0 1013.3 0.1 99
2019-11-26 11:00:00 15.9 12 Oeste 19 Oeste 0 1013.3 0.5 99
2019-11-26 10:00:00 15.9 12 Oeste 20 Oeste 0.1 1013.2 0.7 99
2019-11-26 09:00:00 15.9 9 Oeste 18 Oeste 0 1013.2 0.7 99
2019-11-26 08:00:00 15.7 10 Sudoeste 23 Sudoeste 0.1 1012.8 0.1 99
2019-11-26 07:00:00 15.8 13 Sudoeste 30 Sudoeste 0 1012.5 -0.7 99
2019-11-26 06:00:00 15.7 15 Sudoeste 25 Sudoeste 0.2 1012.5 -0.8 98
2019-11-26 05:00:00 16.2 20 Oeste 32 Oeste 0.6 1012.7 -0.9 98
2019-11-26 04:00:00 16 15 Oeste 32 Sudoeste 0.9 1013.2 -1.1 97
2019-11-26 03:00:00 15.7 6 Oeste 30 Sudoeste 0.1 1013.3 -1.2 97
2019-11-26 02:00:00 15.9 11 Noroeste 33 Sudoeste 0.4 1013.6 -0.9 96
2019-11-26 01:00:00 16.2 17 Oeste 35 Oeste 0 1014.3 -0.4 94
2019-11-26 00:00:00 16.1 16 Sudoeste 30 Sudoeste 0 1014.5 -0.3 93
2019-11-25 23:00:00 16.1 13 Sudoeste 24 Oeste 0 1014.5 0 93
2019-11-25 22:00:00 16.2 17 Sudoeste 27 Sudoeste 0 1014.7 0.2 93
2019-11-25 21:00:00 16.4 16 Sudoeste 26 Sudoeste 0 1014.8 0.4 92
2019-11-25 20:00:00 16.4 16 Sudoeste 26 Sudoeste 0 1014.5 0.2 91
2019-11-25 19:00:00 16.3 15 Sudoeste 27 Sudoeste 0 1014.5 0.4 91
2019-11-25 18:00:00 16.6 13 Sudoeste 26 Oeste 0 1014.4 0 90
2019-11-25 17:00:00 17.2 13 Sudoeste 33 Sudoeste 0 1014.3 -0.5 85
2019-11-25 16:00:00 17.1 19 Oeste 36 Sudoeste 0 1014.1 -1 84
2019-11-25 15:00:00 16.8 23 Sudoeste 33 Sudoeste 0 1014.4 -1.6 84
2019-11-25 14:00:00 17.8 22 Sudoeste 30 Sudoeste 0 1014.8 -1.1 80
2019-11-25 13:00:00 17.3 15 Sudoeste 22 Sudoeste 0 1015.1 -0.6 80
2019-11-25 12:00:00 16.6 14 Sudoeste 27 Oeste 0 1016 0.6 79
2019-11-25 11:00:00 16.4 19 Oeste 28 Oeste 0 1015.9 0.6 81
2019-11-25 10:00:00 16.5 16 Sudoeste 25 Sudoeste 0 1015.7 1.2 79
2019-11-25 09:00:00 15.5 18 Sudoeste 27 Sudoeste 0 1015.4 1.1 81
2019-11-25 08:00:00 14.7 16 Sudoeste 25 Sudoeste 0 1015.3 1.1 82
2019-11-25 07:00:00 14.7 15 Sudoeste 29 Sudoeste 0 1014.5 0.2 84
2019-11-25 06:00:00 15 19 Sudoeste 30 Sudoeste 0 1014.3 -0.4 84
2019-11-25 05:00:00 14.6 16 Sudoeste 32 Sudoeste 0 1014.2 -0.5 84
2019-11-25 04:00:00 14.5 18 Sudoeste 29 Sudoeste 0 1014.3 -0.8 82
2019-11-25 03:00:00 14.3 19 Sudoeste 28 Sudoeste 0 1014.7 -0.7 84
2019-11-25 02:00:00 14 10 Oeste 15 Oeste 0 1014.7 -0.5 87
2019-11-25 01:00:00 13.6 8 Noroeste 14 Noroeste 0 1015.1 -0.2 80
2019-11-25 00:00:00 12 10 Noroeste 15 Noroeste 0 1015.4 0.2 82
2019-11-24 23:00:00 11.9 10 Norte 15 Norte 0 1015.2 0 84
2019-11-24 22:00:00 11.3 9 Norte 12 Norte 0 1015.3 0.5 85
2019-11-24 21:00:00 12 6 Noroeste 17 Oeste 0 1015.2 1.1 83
2019-11-24 20:00:00 13.4 9 Oeste 22 Noroeste 0 1015.2 1.1 81
2019-11-24 19:00:00 13.4 12 Noroeste 23 Noroeste 0 1014.8 0.7 83
2019-11-24 18:00:00 14.1 13 Oeste 26 Oeste 0 1014.1 0.1 81
2019-11-24 17:00:00 14.5 18 Oeste 32 Oeste 0 1014.1 0.1 78
2019-11-24 16:00:00 14.8 23 Oeste 33 Oeste 0 1014.1 -0.6 74
2019-11-24 15:00:00 15 23 Oeste 35 Oeste 0 1014 -1.2 72
2019-11-24 14:00:00 14.9 20 Oeste 36 Sudoeste 0 1014 -1.5 74
2019-11-24 13:00:00 14.5 20 Sudoeste 30 Oeste 0 1014.7 -0.3 78
2019-11-24 12:00:00 14.2 18 Oeste 25 Oeste 0 1015.2 0.9 77
2019-11-24 11:00:00 13.5 12 Oeste 25 Oeste 0 1015.5 2 78
2019-11-24 10:00:00 11.8 5 Norte 15 Noroeste 0 1015 2.3 83
2019-11-24 09:00:00 10.6 8 Norte 19 Noroeste 0 1014.3 2.2 86
2019-11-24 08:00:00 10.2 10 Noroeste 17 Noroeste 0 1013.5 1.3 84
2019-11-24 07:00:00 10.3 7 Noroeste 19 Noroeste 0 1012.7 0.6 84
2019-11-24 06:00:00 11 10 Noroeste 23 Noroeste 0 1012.1 0.1 86
2019-11-24 05:00:00 11 12 Noroeste 18 Noroeste 0 1012.2 0.4 86
2019-11-24 04:00:00 11.5 9 Noroeste 15 Noroeste 0 1012.1 0.3 82
2019-11-24 03:00:00 11.6 6 Noroeste 11 Oeste 0 1012 0.1 84
2019-11-24 02:00:00 11.6 7 Noroeste 12 Norte 0 1011.8 0 87
2019-11-24 01:00:00 11.8 10 Norte 14 Norte 0 1011.8 0.3 89
2019-11-24 00:00:00 12.8 8 Noroeste 21 Oeste 0 1011.9 0.8 82
2019-11-23 23:00:00 13.8 11 Noroeste 18 Noroeste 0 1011.8 1.3 82
2019-11-23 22:00:00 13.9 10 Oeste 18 Oeste 0 1011.5 1.8 82
2019-11-23 21:00:00 14 11 Noroeste 18 Noroeste 0 1011.1 2.3 81
2019-11-23 20:00:00 14.4 12 Noroeste 29 Oeste 0 1010.5 2.7 83
2019-11-23 19:00:00 14.4 14 Oeste 32 Oeste 0 1009.7 2.5 82
2019-11-23 18:00:00 14.7 19 Oeste 36 Oeste 0 1008.8 1.9 78
2019-11-23 17:00:00 15.2 20 Oeste 41 Oeste 0 1007.8 0.7 74
2019-11-23 16:00:00 15.4 29 Oeste 44 Oeste 0 1007.2 0.3 73
2019-11-23 15:00:00 15.3 27 Oeste 45 Oeste 0 1006.9 0 72
2019-11-23 14:00:00 15.5 25 Oeste 49 Oeste 0 1007.1 0.7 71
2019-11-23 13:00:00 15.5 26 Oeste 45 Oeste 0 1006.9 2.1 71
2019-11-23 12:00:00 15.2 27 Oeste 49 Oeste 0 1006.9 2.9 78
2019-11-23 11:00:00 14.7 24 Oeste 46 Oeste 0 1006.4 3.4 82
2019-11-23 10:00:00 14.3 27 Oeste 47 Oeste 0 1004.8 3.1 85
2019-11-23 09:00:00 13.3 21 Oeste 46 Noroeste 0 1004 2.1 83
2019-11-23 08:00:00 13.8 25 Noroeste 58 Oeste 0.2 1003 1.5 82
2019-11-23 07:00:00 15.6 30 Oeste 50 Oeste 0 1001.7 0.7 84
2019-11-23 06:00:00 15.3 25 Oeste 41 Oeste 0 1001.9 1 88
2019-11-23 05:00:00 15.5 28 Oeste 41 Oeste 0 1001.5 -- 86
2019-11-23 04:00:00 15.5 22 Oeste 38 Oeste 0 1001 0.4 89
2019-11-23 03:00:00 15.7 28 Oeste 45 Oeste 0 1000.9 1.1 87
2019-11-23 02:00:00 -- 25 Oeste 48 Oeste 0 -- -- --
2019-11-23 01:00:00 15.8 29 Oeste 48 Oeste 0 1000.6 1.9 89
2019-11-23 00:00:00 15.5 23 Oeste -- -- 0 999.8 1.6 95
2019-11-22 23:00:00 15.1 23 Oeste 46 Oeste 0 998.9 1.3 99
2019-11-22 22:00:00 15 24 Oeste 64 Oeste 6.9 998.7 1.2 99
2019-11-22 21:00:00 17 37 Sudoeste 77 Sudoeste 1.3 998.2 0 99
2019-11-22 20:00:00 17.5 45 Sudoeste 71 Sudoeste 0.4 997.6 -0.4 96
2019-11-22 19:00:00 18 43 Sudoeste 71 Sudoeste 0.1 997.5 -0.5 92
2019-11-22 18:00:00 17.2 36 Sudoeste 67 Sudoeste 1 998.2 -0.1 95
2019-11-22 17:00:00 17.2 32 Sudoeste 48 Sudoeste 0 998 -1.2 96
2019-11-22 16:00:00 17.1 31 Sudoeste 57 Sudoeste 0 998 -2.3 96
2019-11-22 15:00:00 17.2 38 Sudoeste 63 Sudoeste 0.2 998.3 -3.1 94
2019-11-22 14:00:00 16 32 Sudoeste 54 Sudoeste 0 999.2 -2.9 96
2019-11-22 13:00:00 15.7 34 Sudoeste 53 Sur 0 1000.3 -1.2 94
2019-11-22 12:00:00 15.4 30 Sur 54 Sur 0.1 1001.4 -0.3 95
2019-11-22 11:00:00 14.9 30 Sudoeste 57 Sudoeste 0.3 1002.1 0.7 97
2019-11-22 10:00:00 14.7 27 Sur 54 Sur 0.6 1001.5 0.2 98
2019-11-22 09:00:00 14.8 31 Sur 55 Sudoeste 2.7 1001.7 0.1 97
2019-11-22 08:00:00 15.2 31 Sur 50 Sur 0.1 1001.4 -0.4 94
2019-11-22 07:00:00 15.5 25 Sur 54 Sudoeste 0.6 1001.3 -1.7 94
2019-11-22 06:00:00 15.5 32 Sur 58 Sur 1.1 1001.6 -1.7 94
2019-11-22 05:00:00 14.8 32 Sur 48 Sur 9 1001.8 -2 98
2019-11-22 04:00:00 14.7 23 Sur 48 Sudoeste 0.9 1003 -1.3 97
2019-11-22 03:00:00 14.8 18 Sur 42 Sur 1.4 1003.3 -1.7 98
2019-11-22 02:00:00 15 23 Sur -- -- 0.7 1003.8 -1.3 96
2019-11-22 01:00:00 14.8 25 Sur -- -- 0.2 1004.3 -1.2 97
2019-11-22 00:00:00 15 21 Sur 38 Sudoeste 0 1005 -0.4 95
2019-11-21 23:00:00 15.2 18 Sur 35 Sur 0 1005.1 0 93
2019-11-21 22:00:00 15.2 21 Sur 40 Sur 0 1005.5 0.4 92
2019-11-21 21:00:00 15.4 22 Sudoeste 39 Sudoeste 0 1005.4 0.4 93
2019-11-21 20:00:00 15.1 21 Sudoeste 44 Sudoeste 0 1005.1 0.1 95
2019-11-21 19:00:00 15.2 22 Sudoeste 40 Sudoeste 0 1005.1 0.6 96
2019-11-21 18:00:00 14.8 20 Sudoeste 35 Sudoeste 0.9 1005 0.3 97
2019-11-21 17:00:00 14.9 22 Sudoeste 44 Sur 3.5 1005 -0.2 97
2019-11-21 16:00:00 15.4 23 Sur 55 Sur 2.1 1004.5 -1.3 93
2019-11-21 15:00:00 15.8 24 Sur 39 Sudoeste 0.6 1004.7 -1.9 90
2019-11-21 14:00:00 16.1 20 Sudoeste 35 Sudoeste 0 1005.2 -1.6 88
2019-11-21 13:00:00 16.3 24 Sudoeste 38 Sudoeste 0 1005.8 -0.8 88
2019-11-21 12:00:00 16.4 19 Sur 40 Sur 0 1006.6 0 87
2019-11-21 11:00:00 15.3 23 Sur 40 Sur 0.9 1006.8 0.7 91
2019-11-21 10:00:00 14.5 21 Sur 35 Sur 4.4 1006.6 0.4 94
2019-11-21 09:00:00 14.4 17 Sur 35 Sur 0.6 1006.6 0.4 94
2019-11-21 08:00:00 14.4 28 Sur 41 Sudoeste 0 1006.1 -0.3 92
2019-11-21 07:00:00 14.5 21 Sur 39 Sudoeste 0.1 1006.2 -0.5 92
2019-11-21 06:00:00 14.4 19 Sudoeste 36 Sudoeste 0 1006.2 -0.7 91
2019-11-21 05:00:00 14.3 23 Sur 39 Sudoeste 0 1006.4 -0.8 92
2019-11-21 04:00:00 14.5 23 Sudoeste 41 Sudoeste 0 1006.7 -0.9 88
2019-11-21 03:00:00 14.5 18 Sur 30 Sur 0 1006.9 -1.1 87
2019-11-21 02:00:00 14.3 17 Sur 34 Sudoeste 0 1007.2 -0.9 87
2019-11-21 01:00:00 14.3 19 Sur 30 Sur 0 1007.6 -0.2 88
2019-11-21 00:00:00 14.1 18 Sudoeste 31 Sur 0 1008 0.5 89
2019-11-20 23:00:00 13.9 16 Sur 30 Sur 0 1008.1 1 91
2019-11-20 22:00:00 13.7 18 Sudoeste 30 Sur 0 1007.8 1.2 90
2019-11-20 21:00:00 13.8 18 Sudoeste 31 Sudoeste 0 1007.5 1.1 89
2019-11-20 20:00:00 13.5 14 Sudoeste 45 Sur 0 1007.1 0.7 90
2019-11-20 19:00:00 13.2 30 Sur 46 Sur 0.1 1006.6 -0.1 93
2019-11-20 18:00:00 12 0 Calma 27 Sur 10.7 1006.4 0 96
2019-11-20 17:00:00 12.4 13 Sur 24 Sur 0.3 1006.4 -0.9 90
2019-11-20 16:00:00 11.9 5 Este 47 Sur 3.2 1006.7 -1.1 93
2019-11-20 15:00:00 12 28 Sur 40 Sur 3.9 1006.4 -2.3 93
2019-11-20 14:00:00 12.3 21 Sur 45 Sur 3.4 1007.3 -1.9 91
2019-11-20 13:00:00 13.8 23 Sur 36 Sur 0.9 1007.8 -1 84
2019-11-20 12:00:00 14.2 14 Sur 32 Sur 0.1 1008.7 0.2 77
2019-11-20 11:00:00 14.3 13 Sur 26 Sur 0 1009.2 0.7 73
2019-11-20 10:00:00 14 19 Sur 31 Sur 0 1008.8 0.1 71
2019-11-20 09:00:00 13.7 16 Sur 24 Sur 0 1008.5 -0.3 77
2019-11-20 08:00:00 13 10 Sur 18 Sudoeste 0 1008.5 -0.4 81
2019-11-20 07:00:00 9.5 4 Norte 7 Norte 0 1008.7 -0.8 94
2019-11-20 06:00:00 8.6 3 Norte 7 Nordeste 0 1008.8 -0.8 93
2019-11-20 05:00:00 7.8 5 Norte 8 Norte 0 1008.9 -1.2 93
2019-11-20 04:00:00 7.9 5 Norte 9 Norte 0 1009.5 -1 91
2019-11-20 03:00:00 8.6 9 Norte 12 Norte 0 1009.6 -0.9 91
2019-11-20 02:00:00 9.6 9 Norte 13 Norte 0 1010.1 -0.9 90
2019-11-20 01:00:00 9 9 Norte 10 Norte 0 1010.5 -0.7 94
2019-11-20 00:00:00 10.7 4 Norte 6 Oeste 0 1010.5 -0.6 89
2019-11-19 23:00:00 12.3 4 Noroeste 11 Noroeste 0 1011 -0.2 86
2019-11-19 22:00:00 14.1 6 Noroeste 16 Oeste 0 1011.2 -0.1 81
2019-11-19 21:00:00 14.6 9 Oeste 23 Sudoeste 0 1011.1 0 77
2019-11-19 20:00:00 14.8 11 Sudoeste 19 Sudoeste 0 1011.2 -0.2 77
2019-11-19 19:00:00 14.8 10 Sudoeste 17 Oeste 0 1011.3 -0.4 74
2019-11-19 18:00:00 14.4 6 Noroeste 13 Noroeste 0 1011.1 -0.7 76
2019-11-19 17:00:00 14.7 9 Noroeste 18 Oeste 0 1011.4 -1.1 71
2019-11-19 16:00:00 15.2 12 Oeste 21 Oeste 0 1011.7 -1.5 69
2019-11-19 15:00:00 15.7 12 Oeste 21 Oeste 0 1011.8 -2.4 61
2019-11-19 14:00:00 16.2 11 Sudoeste 19 Sudoeste 0 1012.5 -2 65
2019-11-19 13:00:00 15.9 13 Sudoeste 21 Sudoeste 0 1013.2 -1.5 67
2019-11-19 12:00:00 15.6 13 Sudoeste 18 Sudoeste 0 1014.2 -0.3 68
2019-11-19 11:00:00 15.3 7 Sur 12 Sur 0 1014.5 0.3 70
2019-11-19 10:00:00 14.1 7 Sudoeste 14 Sudoeste 0 1014.7 1 75
2019-11-19 09:00:00 11.8 3 Sudoeste 12 Sudoeste 0 1014.5 1.2 83
2019-11-19 08:00:00 12.1 4 Sudoeste 19 Sudoeste 0 1014.2 1 82
2019-11-19 07:00:00 12.1 10 Sudoeste 30 Sur 0 1013.7 0.2 82
2019-11-19 06:00:00 12.1 17 Sudoeste 28 Sudoeste 0 1013.3 -0.2 84
2019-11-19 05:00:00 12.3 18 Sudoeste 28 Sudoeste 0 1013.2 -0.4 82
2019-11-19 04:00:00 12.3 12 Sudoeste 26 Sur 0 1013.5 -0.5 82
2019-11-19 03:00:00 12.4 15 Sudoeste 26 Sudoeste 0 1013.5 -0.8 82
2019-11-19 02:00:00 9.3 3 Norte 10 Noroeste 0 1013.6 -0.9 89
2019-11-19 01:00:00 10.3 0 Calma 10 Noroeste 0 1014 -0.1 84
2019-11-19 00:00:00 10.6 8 Noroeste 15 Noroeste 0 1014.3 0.6 80
2019-11-18 23:00:00 11.7 12 Noroeste 17 Noroeste 0 1014.5 1 75
2019-11-18 22:00:00 10.9 9 Noroeste 18 Noroeste 0 1014.1 1.4 76
2019-11-18 21:00:00 11.2 11 Noroeste 18 Oeste 0 1013.7 1.9 79
2019-11-18 20:00:00 11.9 12 Noroeste 25 Oeste 0 1013.5 1.6 77
2019-11-18 19:00:00 12.6 17 Oeste 39 Oeste 0 1012.7 1.1 78
2019-11-18 18:00:00 12.7 24 Oeste 36 Oeste 0 1011.8 0.3 76
2019-11-18 17:00:00 14 23 Oeste 39 Oeste 0 1011.9 0.7 70
2019-11-18 16:00:00 14 22 Oeste 41 Sudoeste 0 1011.6 0.1 68
2019-11-18 15:00:00 14 21 Oeste 42 Oeste 0 1011.5 -0.6 73
2019-11-18 14:00:00 13.7 26 Oeste 40 Oeste 0 1011.2 -1.2 72
2019-11-18 13:00:00 13.3 22 Oeste 40 Oeste 0 1011.5 -0.3 71
2019-11-18 12:00:00 12.6 17 Oeste 27 Oeste 0 1012.1 1.1 67
2019-11-18 11:00:00 11.5 14 Oeste 28 Noroeste 0 1012.4 2.5 72
2019-11-18 10:00:00 10.1 13 Noroeste 23 Noroeste 0 1011.8 2.8 79
2019-11-18 09:00:00 9.3 13 Noroeste 28 Oeste 0 1011 2.5 83
2019-11-18 08:00:00 10 17 Noroeste 47 Noroeste 0 1009.9 1.8 81
2019-11-18 07:00:00 11.3 27 Oeste 49 Oeste 0 1009 0.7 73
2019-11-18 06:00:00 12.7 25 Noroeste 42 Oeste 0 1008.5 -0.2 79
2019-11-18 05:00:00 13.7 23 Noroeste 56 Oeste 2.2 1008.1 -1.6 95
2019-11-18 04:00:00 15.2 30 Oeste 52 Oeste 0.4 1008.3 -2.3 94
2019-11-18 03:00:00 15.1 32 Oeste 49 Oeste 0.7 1008.7 -2.5 95
2019-11-18 02:00:00 15 20 Oeste 46 Oeste 1.1 1009.7 -2.1 96
2019-11-18 01:00:00 14.6 29 Sudoeste 44 Sudoeste 0.1 1010.6 -1.7 95
2019-11-18 00:00:00 14.6 27 Sudoeste 50 Sudoeste 0 1011.2 -1.5 94
2019-11-17 23:00:00 13.9 27 Sudoeste 50 Sudoeste 0.2 1011.8 -1.3 96
2019-11-17 22:00:00 14.1 31 Sudoeste 53 Sudoeste 0.1 1012.3 -1.2 94
2019-11-17 21:00:00 14.1 31 Sudoeste 50 Sudoeste 0 1012.7 -0.8 92
2019-11-17 20:00:00 13.6 26 Sudoeste 53 Sur 0 1013.1 -1.3 94
2019-11-17 19:00:00 14 32 Sudoeste 52 Sur 0 1013.5 -0.3 93
2019-11-17 18:00:00 13.9 31 Sudoeste 57 Sudoeste 4.6 1013.5 -0.6 93
2019-11-17 17:00:00 13.4 26 Sudoeste 62 Sudoeste 2.1 1014.4 -0.6 93
2019-11-17 16:00:00 14.9 33 Sudoeste 53 Sudoeste 0 1013.8 -2.5 73
2019-11-17 15:00:00 15 33 Sudoeste 55 Sudoeste 0 1014.1 -2.9 72
2019-11-17 14:00:00 14.5 31 Sudoeste 47 Sudoeste 0 1015 -2 72
2019-11-17 13:00:00 14.1 29 Sudoeste 44 Sudoeste 0 1016.3 -0.5 69
2019-11-17 12:00:00 13.7 27 Sudoeste 46 Sudoeste 0 1017 0.5 71
2019-11-17 11:00:00 13.4 28 Sudoeste 45 Sudoeste 0 1017 0.9 69
2019-11-17 10:00:00 13.2 30 Sudoeste 46 Sudoeste 0 1016.8 1.2 71
2019-11-17 09:00:00 12.5 26 Sudoeste 40 Sudoeste 0 1016.5 1.2 72
2019-11-17 08:00:00 11.9 24 Sudoeste 42 Sudoeste 0 1016.1 1.2 73
2019-11-17 07:00:00 11.7 26 Sudoeste 40 Sudoeste 0 1015.6 0.3 75
2019-11-17 06:00:00 11.7 26 Sudoeste 41 Sudoeste 0 1015.3 0 74
2019-11-17 05:00:00 11.6 24 Sudoeste 46 Sudoeste 0 1014.9 -0.8 75
2019-11-17 04:00:00 11.6 24 Sudoeste 40 Sudoeste 0 1015.3 -0.8 73
2019-11-17 03:00:00 11.6 24 Sudoeste 40 Sudoeste 0 1015.3 -1.1 77
2019-11-17 02:00:00 11.7 21 Sudoeste 34 Sudoeste 0 1015.7 -0.7 78
2019-11-17 01:00:00 11.5 19 Sudoeste 31 Sudoeste 0 1016.1 -0.1 81
2019-11-17 00:00:00 7.9 6 Norte 12 Noroeste 0 1016.4 0.6 80
2019-11-16 23:00:00 8.8 7 Noroeste 12 Noroeste 0 1016.4 0.8 74
2019-11-16 22:00:00 10.2 9 Noroeste 15 Noroeste 0 1016.2 1.4 69
2019-11-16 21:00:00 7.3 8 Noroeste 12 Noroeste 0 1015.8 1.5 77
2019-11-16 20:00:00 9.9 5 Noroeste 26 Oeste 0 1015.6 1.5 66
2019-11-16 19:00:00 11 16 Oeste 32 Oeste 0 1014.8 1.3 66
2019-11-16 18:00:00 11.7 20 Oeste 37 Oeste 0 1014.3 1 65
2019-11-16 17:00:00 12 23 Oeste 40 Oeste 0 1014.1 1 67
2019-11-16 16:00:00 12.1 23 Oeste 38 Oeste 0 1013.5 0.3 63
2019-11-16 15:00:00 12.3 22 Oeste 38 Oeste 0 1013.3 -0.3 61
2019-11-16 14:00:00 11.9 22 Oeste 35 Sudoeste 0 1013.1 0.1 61
2019-11-16 13:00:00 10.9 23 Oeste 34 Sudoeste 0 1013.2 0.9 64
2019-11-16 12:00:00 10.5 21 Oeste 32 Oeste 0 1013.6 2.2 62
2019-11-16 11:00:00 10.3 17 Oeste 25 Noroeste 0 1013 2.7 53
2019-11-16 10:00:00 9 11 Noroeste 20 Noroeste 0 1012.3 2.8 61
2019-11-16 09:00:00 7 12 Noroeste 25 Norte 0 1011.4 2.6 67
2019-11-16 08:00:00 6.3 14 Noroeste 18 Norte 0 1010.3 2.3 69
2019-11-16 07:00:00 6.1 12 Noroeste 17 Norte 0 1009.5 1.7 72
2019-11-16 06:00:00 6.7 10 Norte 23 Noroeste 0 1008.8 1.4 69
2019-11-16 05:00:00 7.2 16 Norte 24 Norte 0 1008 0.6 66
2019-11-16 04:00:00 7.6 12 Norte 23 Noroeste 0 1007.8 0.7 65
2019-11-16 03:00:00 8 9 Noroeste 19 Noroeste 0 1007.4 0.4 64
2019-11-16 02:00:00 8.9 13 Noroeste 22 Noroeste 0 1007.4 0.8 61
2019-11-16 01:00:00 9.2 9 Noroeste 27 Oeste 0 1007.1 1 61
2019-11-16 00:00:00 9.9 13 Noroeste 25 Noroeste 0 1007 1.4 58